Time;durP1;ratioP1;P1;durP2;ratioP2;P2;SDS_P1;SDS_P2;PMS_P1;PMS_P2;Temp;Humidity;BMP_temperature;BMP_pressure;BME280_temperature;BME280_humidity;BME280_pressure;Samples;Min_cycle;Max_cycle;Signal;HPM_P1;HPM_P2
2022/12/17 13:06:55;;;;;;;55.23;21.60;;;;;;;-4.39;84.40;100918.59;1730513;82;25584;-61
2022/12/17 13:09:32;;;;;;;51.55;21.25;;;;;;;-4.38;84.33;100925.00;1730576;82;25450;-62
2022/12/17 13:12:07;;;;;;;54.45;21.48;;;;;;;-4.39;84.17;100919.43;1730613;82;27468;-62
2022/12/17 13:14:48;;;;;;;52.20;22.42;;;;;;;-4.39;84.16;100920.75;1730468;82;25538;-61
2022/12/17 13:17:34;;;;;;;58.28;22.05;;;;;;;-4.40;83.98;100918.30;1725726;83;25483;-62
2022/12/17 13:20:24;;;;;;;58.40;22.17;;;;;;;-4.41;84.01;100917.98;1725785;83;25659;-63
2022/12/17 13:23:10;;;;;;;55.78;24.35;;;;;;;-4.42;84.07;100918.49;1725832;83;25489;-61
2022/12/17 13:25:37;;;;;;;59.08;23.70;;;;;;;-4.41;84.19;100919.30;1738388;81;27928;-62
2022/12/17 13:28:04;;;;;;;56.58;23.77;;;;;;;-4.42;84.00;100926.41;1756053;81;25887;-62
2022/12/17 13:30:37;;;;;;;54.08;23.42;;;;;;;-4.42;83.98;100925.09;1756170;81;25445;-61
2022/12/17 13:33:40;;;;;;;59.58;22.65;;;;;;;-4.43;83.93;100923.97;1756130;81;25626;-62
2022/12/17 13:36:47;;;;;;;53.25;21.55;;;;;;;-4.45;83.86;100920.71;1755890;81;25510;-62
2022/12/17 13:39:34;;;;;;;53.35;21.02;;;;;;;-4.48;83.79;100921.90;1756198;81;27302;-62
2022/12/17 13:42:00;;;;;;;55.58;23.27;;;;;;;-4.52;83.79;100920.66;1756111;81;25477;-61
2022/12/17 13:44:38;;;;;;;56.63;24.02;;;;;;;-4.52;83.89;100933.87;1756524;81;25529;-82
2022/12/17 13:47:04;;;;;;;57.03;23.05;;;;;;;-4.52;83.85;100941.28;1735981;81;25727;-77
2022/12/17 13:49:31;;;;;;;62.25;24.10;;;;;;;-4.54;83.91;100938.53;1735978;82;25562;-80
2022/12/17 13:52:18;;;;;;;56.50;22.67;;;;;;;-4.54;83.90;100942.50;1735570;82;27304;-76
2022/12/17 13:54:45;;;;;;;60.48;23.87;;;;;;;-4.55;83.86;100944.30;1744081;82;25680;-78
2022/12/17 13:57:24;;;;;;;63.65;23.65;;;;;;;-4.59;83.79;100952.30;1773628;80;25085;-85
2022/12/17 13:59:55;;;;;;;57.00;23.93;;;;;;;-4.62;83.61;100958.48;1773101;81;26188;-76
2022/12/17 14:02:37;;;;;;;62.33;24.15;;;;;;;-4.70;83.58;100949.70;1771763;80;25419;-77
2022/12/17 14:05:06;;;;;;;59.33;23.45;;;;;;;-4.70;83.61;100960.74;1772085;79;27580;-77
2022/12/17 14:07:37;;;;;;;60.23;23.22;;;;;;;-4.77;83.56;100962.52;1772276;81;25624;-73
2022/12/17 14:10:16;;;;;;;54.75;23.62;;;;;;;-4.84;83.43;100963.78;1772265;81;25413;-79
2022/12/17 14:12:43;;;;;;;52.23;21.55;;;;;;;-4.91;83.35;100966.37;1772629;81;26341;-75
2022/12/17 14:15:27;;;;;;;52.40;21.70;;;;;;;-4.98;83.38;100966.81;1772716;81;25054;-76
2022/12/17 14:17:55;;;;;;;51.35;20.75;;;;;;;-5.05;83.32;100969.91;1772266;81;27499;-78
2022/12/17 14:44:25;;;;;;;52.15;23.77;;;;;;;-4.71;83.05;101011.41;1905540;74;33948;-70
2022/12/17 14:47:27;;;;;;;52.75;21.17;;;;;;;-4.84;82.96;101009.16;1789890;80;25348;-71
2022/12/17 14:50:20;;;;;;;52.20;21.35;;;;;;;-4.91;83.11;101003.31;1810710;78;27532;-74
2022/12/17 14:52:52;;;;;;;50.63;21.15;;;;;;;-4.95;83.30;101009.98;1778888;79;25562;-71
2022/12/17 14:55:53;;;;;;;49.33;20.37;;;;;;;-4.98;83.38;101010.36;1810735;79;25402;-69
2022/12/17 14:58:21;;;;;;;52.73;21.57;;;;;;;-5.02;83.42;101009.59;1809453;79;25448;-71
2022/12/17 15:01:05;;;;;;;52.88;20.60;;;;;;;-5.08;83.42;101015.12;1789856;80;25468;-69
2022/12/17 15:03:38;;;;;;;59.90;23.22;;;;;;;-5.14;83.44;101017.19;1810826;79;27546;-71
2022/12/17 15:06:11;;;;;;;55.75;21.80;;;;;;;-5.20;83.40;101021.40;1810915;78;25532;-79
2022/12/17 15:08:46;;;;;;;53.65;21.97;;;;;;;-5.25;83.42;101029.86;1811133;79;25495;-76
2022/12/17 15:11:17;;;;;;;57.43;23.25;;;;;;;-5.29;83.54;101031.25;1809095;79;25475;-68
2022/12/17 15:13:44;;;;;;;61.28;24.30;;;;;;;-5.34;83.59;101034.95;1778850;79;25448;-65
2022/12/17 15:16:12;;;;;;;61.48;24.23;;;;;;;-5.36;83.68;101040.91;1789792;80;27446;-67
2022/12/17 15:18:39;;;;;;;64.87;23.05;;;;;;;-5.34;83.79;101048.64;1804298;79;25670;-65
2022/12/17 15:21:05;;;;;;;60.75;22.48;;;;;;;-5.40;83.82;101044.91;1789775;80;25386;-65
2022/12/17 15:23:32;;;;;;;57.78;26.15;;;;;;;-5.41;83.85;101049.88;1810595;79;25369;-68
2022/12/17 15:25:58;;;;;;;60.60;23.83;;;;;;;-5.41;83.87;101049.05;1810707;79;25621;-68
2022/12/17 15:28:27;;;;;;;53.68;21.42;;;;;;;-5.45;83.72;101053.87;1810686;79;27471;-67
2022/12/17 15:30:54;;;;;;;56.92;23.10;;;;;;;-5.51;83.70;101054.12;1789858;79;25776;-64
2022/12/17 15:33:21;;;;;;;56.15;23.07;;;;;;;-5.52;83.86;101052.98;1810717;78;25467;-65
2022/12/17 15:35:47;;;;;;;54.03;23.22;;;;;;;-5.52;84.02;101052.98;1789842;80;25559;-63
2022/12/17 15:38:15;;;;;;;54.53;21.97;;;;;;;-5.53;84.06;101056.64;1810686;79;25452;-63
2022/12/17 15:40:41;;;;;;;60.60;23.15;;;;;;;-5.54;84.11;101055.80;1810628;79;27465;-63
2022/12/17 15:43:11;;;;;;;52.78;21.42;;;;;;;-5.56;84.15;101054.36;1810409;79;25820;-64
2022/12/17 15:45:51;;;;;;;50.95;21.05;;;;;;;-5.56;84.10;101059.12;1758875;80;25491;-62
2022/12/17 15:48:22;;;;;;;56.95;23.52;;;;;;;-5.57;84.15;101063.27;1810704;79;25642;-64
2022/12/17 15:50:49;;;;;;;57.25;20.45;;;;;;;-5.58;84.23;101068.20;1810665;79;25653;-62
2022/12/17 15:53:16;;;;;;;53.98;21.37;;;;;;;-5.59;84.20;101073.98;1779331;79;27473;-63
2022/12/17 15:55:43;;;;;;;50.58;21.52;;;;;;;-5.63;84.15;101075.36;1809906;78;25545;-64
2022/12/17 15:58:12;;;;;;;52.85;21.85;;;;;;;-5.66;84.23;101070.45;1810049;79;25398;-64
2022/12/17 16:00:39;;;;;;;59.95;23.57;;;;;;;-5.68;84.29;101076.41;1789300;79;25471;-63
2022/12/17 16:03:06;;;;;;;57.15;24.60;;;;;;;-5.70;84.46;101074.47;1803754;79;25417;-62
2022/12/17 16:05:32;;;;;;;51.18;22.17;;;;;;;-5.67;84.53;101087.25;1789252;80;28304;-60
2022/12/17 16:08:01;;;;;;;54.03;22.75;;;;;;;-5.68;84.54;101093.03;1810011;79;25612;-61
2022/12/17 16:10:29;;;;;;;55.03;22.35;;;;;;;-5.69;84.62;101097.98;1810130;79;25540;-63
2022/12/17 16:12:55;;;;;;;51.53;22.40;;;;;;;-5.70;84.42;101098.19;1810012;79;25392;-62
2022/12/17 16:15:22;;;;;;;54.63;22.40;;;;;;;-5.73;84.31;101098.54;1810334;79;25390;-63
2022/12/17 16:17:48;;;;;;;52.95;21.37;;;;;;;-5.79;84.16;101097.94;1809916;79;27629;-63
2022/12/17 16:20:16;;;;;;;57.43;23.40;;;;;;;-5.83;84.16;101104.88;1809651;79;25637;-62
2022/12/17 16:22:43;;;;;;;55.05;22.00;;;;;;;-5.88;84.09;101112.51;1809744;79;25633;-62
2022/12/17 16:25:13;;;;;;;53.30;21.10;;;;;;;-5.91;84.04;101111.55;1788887;80;25381;-62
2022/12/17 16:27:39;;;;;;;57.88;24.63;;;;;;;-5.95;84.02;101108.97;1810017;79;25542;-62
2022/12/17 16:30:15;;;;;;;52.15;23.00;;;;;;;-5.95;84.13;101112.92;1809943;79;27602;-62
2022/12/17 16:32:43;;;;;;;47.40;21.20;;;;;;;-5.97;84.22;101104.92;1809662;79;25591;-62
2022/12/17 16:35:10;;;;;;;55.55;23.00;;;;;;;-6.01;84.19;101114.49;1809965;79;25515;-64
2022/12/17 16:37:36;;;;;;;54.15;21.35;;;;;;;-6.05;84.14;101111.87;1789010;80;25587;-64
2022/12/17 16:40:10;;;;;;;52.08;22.37;;;;;;;-6.05;84.26;101126.38;1809535;79;25520;-63
2022/12/17 16:42:37;;;;;;;52.67;21.00;;;;;;;-6.07;84.24;101121.78;1809371;79;29589;-61
2022/12/17 16:45:11;;;;;;;50.52;21.42;;;;;;;-6.06;84.39;101116.84;1809909;79;25676;-60
2022/12/17 16:47:40;;;;;;;55.78;22.65;;;;;;;-6.04;84.47;101121.94;1809766;79;25385;-61
2022/12/17 16:50:09;;;;;;;45.65;20.95;;;;;;;-6.03;84.55;101136.25;1774875;79;25484;-62
2022/12/17 16:52:37;;;;;;;51.40;20.82;;;;;;;-6.02;84.58;101134.43;1810028;79;25436;-63
2022/12/17 16:55:10;;;;;;;48.63;21.02;;;;;;;-6.02;84.46;101136.55;1809765;79;28037;-62
2022/12/17 16:57:36;;;;;;;47.27;20.20;;;;;;;-6.04;84.37;101141.19;1809770;79;25765;-64
2022/12/17 17:00:12;;;;;;;52.05;22.07;;;;;;;-6.04;84.32;101146.97;1809887;79;25353;-57
2022/12/17 17:02:38;;;;;;;52.70;22.10;;;;;;;-6.07;84.39;101157.85;1809762;79;25422;-59
2022/12/17 17:05:07;;;;;;;49.95;21.85;;;;;;;-6.09;84.39;101155.91;1809875;79;25452;-58
2022/12/17 17:07:36;;;;;;;47.75;21.60;;;;;;;-6.12;84.39;101168.91;1809804;79;27444;-58
2022/12/17 17:10:07;;;;;;;52.38;22.35;;;;;;;-6.14;84.47;101168.28;1809736;79;25551;-58
2022/12/17 17:12:36;;;;;;;55.38;23.87;;;;;;;-6.16;84.48;101168.95;1809586;79;25425;-62
2022/12/17 17:15:04;;;;;;;;;;;;;;;-6.18;84.62;101164.84;1812470;79;25380;-58
2022/12/17 17:17:30;;;;;;;55.65;22.32;;;;;;;-6.18;84.79;101172.24;1809831;79;25482;-58
2022/12/17 17:19:59;;;;;;;58.63;23.30;;;;;;;-6.18;84.78;101173.56;1791746;78;27620;-60
2022/12/17 17:22:26;;;;;;;58.65;24.63;;;;;;;-6.21;84.78;101173.94;1809743;79;25670;-60
2022/12/17 17:24:55;;;;;;;52.05;23.27;;;;;;;-6.21;84.84;101180.02;1809764;79;25354;-59
2022/12/17 17:27:21;;;;;;;54.53;22.13;;;;;;;-6.21;84.85;101187.91;1810065;78;25341;-62
2022/12/17 17:29:48;;;;;;;49.38;22.27;;;;;;;-6.21;84.75;101191.05;1810012;79;25611;-64
2022/12/17 17:32:16;;;;;;;57.38;24.72;;;;;;;-6.27;84.61;101193.06;1809791;79;27451;-62
2022/12/17 17:34:43;;;;;;;50.78;22.40;;;;;;;-6.30;84.67;101194.25;1809832;79;25941;-63
2022/12/17 17:37:09;;;;;;;52.10;22.42;;;;;;;-6.30;84.72;101202.63;1809971;79;25545;-62
2022/12/17 17:39:38;;;;;;;57.75;24.27;;;;;;;-6.29;84.83;101208.23;1808387;78;25962;-63
2022/12/17 17:42:06;;;;;;;55.12;23.85;;;;;;;-6.32;84.77;101201.98;1810017;79;25432;-63
2022/12/17 17:44:34;;;;;;;55.10;23.32;;;;;;;-6.35;84.72;101199.22;1809949;79;27396;-45
2022/12/17 17:47:03;;;;;;;60.40;25.68;;;;;;;-6.39;84.77;101201.36;1808982;79;25210;-47
2022/12/17 17:49:29;;;;;;;62.13;25.32;;;;;;;-6.35;84.97;101204.97;1810083;79;25583;-45
2022/12/17 17:52:01;;;;;;;58.35;25.80;;;;;;;-6.36;85.07;101196.26;1809807;79;25429;-49
2022/12/17 17:54:31;;;;;;;60.58;24.82;;;;;;;-6.34;85.18;101190.81;1809942;79;25386;-47
2022/12/17 17:56:57;;;;;;;58.23;24.80;;;;;;;-6.34;85.20;101202.16;1810143;79;27536;-45
2022/12/17 17:59:23;;;;;;;64.30;28.00;;;;;;;-6.35;85.08;101208.91;1758466;80;25675;-47
2022/12/17 18:01:52;;;;;;;71.75;30.12;;;;;;;-6.33;85.08;101209.55;1803579;79;25557;-47
2022/12/17 18:04:27;;;;;;;71.62;30.20;;;;;;;-6.32;85.10;101219.10;1788857;80;25566;-49
2022/12/17 18:06:56;;;;;;;66.80;29.48;;;;;;;-6.31;85.13;101222.88;1809777;79;25581;-48
2022/12/17 18:09:22;;;;;;;67.35;28.55;;;;;;;-6.31;85.14;101220.25;1810284;79;30922;-49
2022/12/17 18:11:49;;;;;;;63.68;27.90;;;;;;;-6.28;85.09;101230.91;1809910;79;25544;-45
2022/12/17 18:14:16;;;;;;;62.65;26.15;;;;;;;-6.30;85.03;101234.23;1810010;79;25159;-47
2022/12/17 18:16:47;;;;;;;61.88;26.90;;;;;;;-6.30;84.95;101232.43;1809922;79;25600;-46
2022/12/17 18:46:09;;;;;;;55.98;23.57;;;;;;;-6.51;84.94;101296.72;1802301;75;27380;-50
2022/12/17 18:48:36;;;;;;;54.70;23.62;;;;;;;-6.50;85.01;101302.28;1798066;79;27458;-46
2022/12/17 18:51:06;;;;;;;47.08;21.77;;;;;;;-6.52;85.17;101297.22;1797915;79;25539;-45
2022/12/17 18:53:32;;;;;;;52.33;21.90;;;;;;;-6.52;84.95;101306.44;1797984;79;25634;-51
2022/12/17 18:56:09;;;;;;;55.63;23.45;;;;;;;-6.53;84.91;101302.66;1768964;79;26517;-48
2022/12/17 18:58:36;;;;;;;55.70;22.75;;;;;;;-6.55;84.92;101305.45;1797299;79;25393;-47
2022/12/17 19:01:05;;;;;;;50.65;22.48;;;;;;;-6.55;84.99;101306.77;1707458;83;27542;-47
2022/12/17 19:03:33;;;;;;;52.73;23.27;;;;;;;-6.54;85.15;101309.70;1797749;79;25775;-48
2022/12/17 19:06:02;;;;;;;56.02;24.43;;;;;;;-6.55;85.14;101309.41;1797982;79;25395;-48
2022/12/17 19:08:34;;;;;;;54.10;22.37;;;;;;;-6.54;85.15;101304.95;1797542;79;25577;-47
2022/12/17 19:11:07;;;;;;;55.58;23.90;;;;;;;-6.56;85.17;101313.02;1697381;83;25498;-46
2022/12/17 19:13:35;;;;;;;58.30;23.90;;;;;;;-6.55;85.21;101317.77;1743961;82;27409;-48
2022/12/17 19:16:10;;;;;;;57.43;25.62;;;;;;;-6.57;85.21;101317.47;1707448;83;25876;-49
2022/12/17 19:18:38;;;;;;;61.48;24.43;;;;;;;-6.56;85.27;101316.96;1798016;79;25598;-47
2022/12/17 19:21:09;;;;;;;55.52;24.52;;;;;;;-6.56;85.33;101316.96;1797912;79;25459;-47
2022/12/17 19:23:35;;;;;;;58.28;23.95;;;;;;;-6.55;85.33;101323.03;1798014;79;25439;-45
2022/12/17 19:26:12;;;;;;;52.85;24.63;;;;;;;-6.54;85.47;101320.74;1797896;79;27463;-46
2022/12/17 19:28:43;;;;;;;63.48;25.12;;;;;;;-6.54;85.55;101324.69;1707017;83;25675;-49
2022/12/17 19:31:11;;;;;;;57.62;25.75;;;;;;;-6.53;85.56;101318.45;1710035;82;25923;-47
2022/12/17 19:33:40;;;;;;;64.90;28.42;;;;;;;-6.52;85.63;101321.39;1707988;83;25636;-46
2022/12/17 19:36:15;;;;;;;61.95;26.30;;;;;;;-6.48;85.67;101333.23;1729919;82;31442;-47
2022/12/17 19:38:44;;;;;;;66.15;27.95;;;;;;;-6.45;85.67;101330.23;1706807;83;28256;-46
2022/12/17 19:41:16;;;;;;;64.17;27.05;;;;;;;-6.44;85.68;101335.84;1728129;82;25770;-46
2022/12/17 19:43:47;;;;;;;62.75;25.97;;;;;;;-6.44;85.64;101334.02;1798078;79;25388;-45
2022/12/17 19:46:18;;;;;;;58.95;23.65;;;;;;;-6.45;85.69;101336.81;1795309;79;25692;-48
2022/12/17 19:48:47;;;;;;;59.45;26.70;;;;;;;-6.43;85.70;101342.75;1792539;80;25409;-48
2022/12/17 19:51:17;;;;;;;;;;;;;;;-6.41;85.76;101351.30;1795102;80;28210;-47
2022/12/17 19:53:46;;;;;;;54.85;24.40;;;;;;;-6.40;85.74;101359.53;1792455;80;25586;-48
2022/12/17 19:56:20;;;;;;;57.60;24.33;;;;;;;-6.40;85.67;101360.34;1792714;80;25453;-48
2022/12/17 19:58:51;;;;;;;58.23;25.10;;;;;;;-6.42;85.67;101354.91;1792468;80;26099;-46
2022/12/17 20:01:23;;;;;;;58.75;24.32;;;;;;;-6.41;85.73;101358.69;1712121;83;25405;-46
2022/12/17 20:03:51;;;;;;;58.90;25.48;;;;;;;-6.42;85.75;101360.17;1746528;82;27558;-48
2022/12/17 20:06:24;;;;;;;57.85;24.98;;;;;;;-6.41;85.87;101367.09;1711994;83;25802;-47
2022/12/17 20:08:51;;;;;;;58.80;24.37;;;;;;;-6.41;85.90;101381.07;1747033;81;25435;-48
2022/12/17 20:11:34;;;;;;;54.83;24.25;;;;;;;-6.43;85.93;101380.42;1711989;83;25571;-47
2022/12/17 20:14:17;;;;;;;53.42;23.98;;;;;;;-6.42;86.00;101381.23;1747033;82;25462;-47
2022/12/17 20:16:48;;;;;;;60.15;25.88;;;;;;;-6.41;86.12;101378.94;1792459;80;27482;-47
2022/12/17 20:19:19;;;;;;;55.38;24.82;;;;;;;-6.39;86.25;101380.91;1791949;79;25468;-49
2022/12/17 20:21:46;;;;;;;53.58;22.98;;;;;;;-6.37;86.26;101386.81;1772237;80;25428;-50
2022/12/17 20:24:14;;;;;;;54.42;24.70;;;;;;;-6.35;86.30;101382.70;1792388;80;25606;-47
2022/12/17 20:26:43;;;;;;;53.78;22.48;;;;;;;-6.35;86.35;101380.91;1792444;80;25544;-48
2022/12/17 20:29:10;;;;;;;61.42;24.65;;;;;;;-6.36;86.38;101380.57;1792604;80;27515;-48
2022/12/17 20:31:37;;;;;;;56.77;22.98;;;;;;;-6.35;86.46;101378.75;1772325;80;25472;-46
2022/12/17 20:34:06;;;;;;;61.35;24.87;;;;;;;-6.34;86.52;101389.11;1792485;80;25591;-49
2022/12/17 20:36:34;;;;;;;55.25;24.05;;;;;;;-6.31;86.51;101394.55;1792585;80;26572;-46
2022/12/17 20:39:01;;;;;;;54.33;23.85;;;;;;;-6.32;86.55;101398.97;1792475;80;25427;-48
2022/12/17 20:41:30;;;;;;;55.28;23.47;;;;;;;-6.31;86.62;101399.81;1792430;80;27537;-46
2022/12/17 20:43:57;;;;;;;60.43;25.80;;;;;;;-6.27;86.70;101409.00;1712220;83;25850;-49
2022/12/17 20:46:24;;;;;;;57.95;24.87;;;;;;;-6.26;86.77;101406.70;1745796;82;25656;-48
2022/12/17 20:48:51;;;;;;;55.00;23.95;;;;;;;-6.23;86.83;101412.92;1797673;79;25562;-48
2022/12/17 20:51:25;;;;;;;62.15;25.32;;;;;;;-6.24;86.83;101418.70;1798045;79;25523;-48
2022/12/17 20:53:54;;;;;;;56.75;24.43;;;;;;;-6.22;86.84;101415.39;1798089;79;27471;-46
2022/12/17 20:56:25;;;;;;;61.18;24.50;;;;;;;-6.16;86.83;101420.50;1798105;79;25775;-48
2022/12/17 20:58:59;;;;;;;72.17;29.23;;;;;;;-6.15;86.77;101418.67;1797567;79;25483;-52
2022/12/17 21:01:28;;;;;;;61.35;27.52;;;;;;;-6.15;86.80;101418.67;1798078;79;25540;-51
2022/12/17 21:03:57;;;;;;;64.82;28.87;;;;;;;-6.13;86.85;101420.63;1798205;79;32739;-49
2022/12/17 21:06:38;;;;;;;67.58;30.57;;;;;;;-6.11;86.93;101426.55;1798160;79;27500;-47
2022/12/17 21:09:05;;;;;;;62.33;27.85;;;;;;;-6.08;86.97;101427.53;1795946;79;27337;-46
2022/12/17 21:11:33;;;;;;;81.65;32.53;;;;;;;-6.04;87.05;101434.11;1798115;79;25433;-46
2022/12/17 21:14:07;;;;;;;83.60;35.67;;;;;;;-6.01;87.09;101443.81;1798244;79;25596;-48
2022/12/17 21:16:34;;;;;;;75.12;31.20;;;;;;;-5.98;87.16;101455.80;1798100;79;25377;-47
2022/12/17 21:19:03;;;;;;;59.42;26.23;;;;;;;-5.97;87.07;101457.46;1798017;79;27493;-50
2022/12/17 21:21:33;;;;;;;59.85;25.20;;;;;;;-5.94;87.04;101465.00;1798126;79;25632;-48
2022/12/17 21:24:00;;;;;;;;;;;;;;;-5.93;86.96;101467.13;1800694;79;25549;-47
2022/12/17 21:26:31;;;;;;;49.42;21.55;;;;;;;-5.95;86.86;101466.48;1798050;79;26094;-48
2022/12/17 21:28:59;;;;;;;52.20;23.05;;;;;;;-5.96;87.02;101459.59;1797743;79;25544;-47
2022/12/17 21:31:30;;;;;;;53.00;23.87;;;;;;;-5.95;87.09;101460.70;1798030;79;27521;-51
2022/12/17 21:34:00;;;;;;;59.83;24.27;;;;;;;-5.93;87.08;101469.77;1797952;79;25469;-47
2022/12/17 21:36:28;;;;;;;56.83;22.82;;;;;;;-5.93;87.04;101465.30;1768749;79;25473;-48
2022/12/17 21:38:54;;;;;;;51.77;22.73;;;;;;;-5.93;87.07;101462.67;1797979;79;25478;-48
2022/12/17 21:41:29;;;;;;;86.67;41.55;;;;;;;-5.90;87.15;101467.61;1797986;79;25600;-49
2022/12/17 21:44:03;;;;;;;70.85;33.23;;;;;;;-5.87;87.37;101462.00;1797049;79;27527;-51
2022/12/17 21:46:30;;;;;;;113.50;50.08;;;;;;;-5.83;87.51;101467.23;1706555;83;25813;-51
2022/12/17 21:48:59;;;;;;;59.18;25.30;;;;;;;-5.74;87.62;101479.06;1725832;82;25456;-47
2022/12/17 21:51:27;;;;;;;58.38;27.52;;;;;;;-5.70;87.50;101481.70;1704496;83;25537;-48
2022/12/17 21:53:57;;;;;;;53.28;25.77;;;;;;;-5.71;87.30;101474.77;1725789;82;25620;-49
2022/12/17 21:56:25;;;;;;;54.45;24.85;;;;;;;-5.70;87.23;101485.14;1704081;83;27397;-47
2022/12/17 21:59:00;;;;;;;53.15;23.62;;;;;;;-5.70;87.18;101486.47;1725553;82;25426;-47
2022/12/17 22:01:31;;;;;;;54.05;24.35;;;;;;;-5.69;87.14;101489.91;1704233;83;25573;-48
2022/12/17 22:04:01;;;;;;;52.40;23.57;;;;;;;-5.71;87.16;101486.12;1725638;82;25584;-47
2022/12/17 22:06:31;;;;;;;45.78;21.12;;;;;;;-5.71;87.09;101478.73;1704311;83;25495;-47
2022/12/17 22:08:59;;;;;;;50.43;22.82;;;;;;;-5.67;87.07;101489.23;1725955;82;27458;-51
2022/12/17 22:11:26;;;;;;;47.83;22.95;;;;;;;-5.68;87.19;101484.47;1703412;83;25666;-49
2022/12/17 22:14:10;;;;;;;52.53;22.60;;;;;;;-5.66;87.21;101487.75;1724987;82;25732;-48
2022/12/17 22:16:45;;;;;;;49.23;22.20;;;;;;;-5.64;87.17;101492.34;1703975;83;25456;-47
2022/12/17 22:19:18;;;;;;;47.93;23.02;;;;;;;-5.64;87.21;101487.08;1725935;82;25407;-48
2022/12/17 22:21:46;;;;;;;48.10;22.25;;;;;;;-5.62;87.24;101492.17;1704616;83;27555;-47
2022/12/17 22:24:17;;;;;;;61.53;26.80;;;;;;;-5.60;87.18;101502.55;1725721;82;25604;-48
2022/12/17 22:26:45;;;;;;;52.80;24.95;;;;;;;-5.61;87.15;101500.42;1703788;84;25594;-47
2022/12/17 22:32:58;;;;;;;52.27;23.18;;;;;;;-5.60;87.11;101504.72;1680351;84;25645;-48
2022/12/17 22:34:24;;;;;;;48.28;22.20;;;;;;;-5.65;86.80;101512.31;1761640;81;28132;-47
2022/12/17 22:36:50;;;;;;;48.35;21.82;;;;;;;-5.66;86.84;101513.30;1761460;81;25583;-47
2022/12/17 22:39:16;;;;;;;49.33;22.90;;;;;;;-5.67;86.81;101519.55;1761574;81;25604;-47
2022/12/17 22:44:27;;;;;;;49.45;23.27;;;;;;;-5.71;86.77;101523.03;1761617;81;25453;-49
2022/12/17 22:46:54;;;;;;;52.83;23.12;;;;;;;-5.73;86.68;101522.39;1762846;81;27537;-48
2022/12/17 22:49:20;;;;;;;53.38;24.75;;;;;;;-5.74;86.79;101532.59;1766380;81;25387;-50
2022/12/17 22:51:46;;;;;;;49.53;23.20;;;;;;;-5.77;86.81;101529.48;1766536;81;25468;-51
2022/12/17 22:54:14;;;;;;;48.28;23.45;;;;;;;-5.76;86.85;101537.73;1766414;81;25460;-48
2022/12/17 22:56:42;;;;;;;54.88;24.75;;;;;;;-5.75;86.90;101546.78;1766526;81;25473;-49
2022/12/17 22:59:15;;;;;;;52.50;25.12;;;;;;;-5.77;86.91;101548.77;1766452;81;27507;-48
2022/12/17 23:01:41;;;;;;;56.28;25.52;;;;;;;-5.76;87.04;101542.48;1766413;81;25590;-49
2022/12/17 23:04:13;;;;;;;54.48;24.87;;;;;;;-5.75;87.03;101552.05;1766531;81;25549;-50
2022/12/17 23:06:41;;;;;;;58.33;27.25;;;;;;;-5.74;87.03;101556.82;1765881;81;26227;-52
2022/12/17 23:09:07;;;;;;;59.88;28.38;;;;;;;-5.73;87.07;101555.34;1766680;81;25546;-48
2022/12/17 23:11:34;;;;;;;53.68;24.35;;;;;;;-5.72;86.99;101559.63;1766584;81;27531;-48
2022/12/17 23:14:02;;;;;;;50.83;21.40;;;;;;;-5.76;86.83;101563.58;1766519;81;25621;-50
2022/12/17 23:16:29;;;;;;;47.23;21.70;;;;;;;-5.75;86.83;101567.05;1766681;81;25628;-49
2022/12/17 23:18:55;;;;;;;52.30;22.37;;;;;;;-5.77;86.80;101569.86;1766558;81;25569;-50
2022/12/17 23:21:24;;;;;;;42.88;20.05;;;;;;;-5.77;86.74;101573.81;1766626;81;25439;-48
2022/12/17 23:23:53;;;;;;;36.17;17.23;;;;;;;-5.80;86.58;101571.51;1766790;81;27570;-50
2022/12/17 23:26:25;;;;;;;44.93;19.60;;;;;;;-5.83;86.53;101575.29;1766681;81;25560;-49
2022/12/17 23:29:02;;;;;;;44.08;19.70;;;;;;;-5.87;86.50;101571.86;1766637;81;25386;-49
2022/12/17 23:31:30;;;;;;;44.83;20.62;;;;;;;-5.89;86.49;101568.08;1765062;81;25504;-49
2022/12/17 23:33:56;;;;;;;42.65;20.50;;;;;;;-5.90;86.45;101559.83;1766635;81;25466;-49
2022/12/17 23:36:25;;;;;;;45.03;21.87;;;;;;;-5.91;86.55;101561.31;1766627;81;27576;-50
2022/12/17 23:38:54;;;;;;;44.13;21.25;;;;;;;-5.90;86.60;101570.88;1766515;81;25558;-49
2022/12/17 23:41:25;;;;;;;47.20;20.92;;;;;;;-5.93;86.58;101570.70;1766708;81;25557;-50
2022/12/17 23:43:53;;;;;;;43.05;19.80;;;;;;;-5.97;86.56;101578.66;1766572;81;25551;-51
2022/12/17 23:46:21;;;;;;;39.58;18.90;;;;;;;-5.96;86.70;101579.48;1766572;81;25485;-49
2022/12/17 23:48:48;;;;;;;47.73;20.97;;;;;;;-5.97;86.81;101583.13;1766540;81;27232;-50
2022/12/17 23:51:18;;;;;;;42.08;20.20;;;;;;;-5.98;86.80;101582.28;1766447;81;25552;-49
2022/12/17 23:53:45;;;;;;;41.60;20.30;;;;;;;-5.98;86.80;101594.13;1766622;81;25594;-50
2022/12/17 23:56:19;;;;;;;44.53;21.37;;;;;;;-5.96;86.84;101593.97;1766489;81;25612;-52
2022/12/17 23:58:46;;;;;;;49.80;22.07;;;;;;;-5.95;86.92;101603.00;1678475;84;25470;-51
